Time;durP1;ratioP1;P1;durP2;ratioP2;P2;SDS_P1;SDS_P2;PMS_P1;PMS_P2;Temp;Humidity;BMP_temperature;BMP_pressure;BME280_temperature;BME280_humidity;BME280_pressure;Samples;Min_cycle;Max_cycle;Signal;HPM_P1;HPM_P2
2023/08/21 00:00:59;;;;;;;7.60;5.63;;;;;;;23.74;70.39;96221.19;5002972;28;20189;-77
2023/08/21 00:03:24;;;;;;;7.72;6.00;;;;;;;23.77;69.89;96219.16;5024133;28;20179;-79
2023/08/21 00:05:50;;;;;;;6.50;5.90;;;;;;;23.82;69.76;96225.44;5013594;28;20250;-78
2023/08/21 00:08:15;;;;;;;8.63;6.57;;;;;;;23.83;69.56;96221.75;5010160;28;20224;-78
2023/08/21 00:10:41;;;;;;;6.47;5.88;;;;;;;23.81;69.13;96220.34;5018975;28;20479;-78
2023/08/21 00:13:06;;;;;;;6.80;6.20;;;;;;;23.81;69.40;96217.69;5011957;28;20672;-78
2023/08/21 00:15:32;;;;;;;7.05;5.95;;;;;;;23.81;69.03;96223.00;5021809;28;20182;-78
2023/08/21 00:17:57;;;;;;;7.53;6.03;;;;;;;23.77;69.75;96219.97;5016471;28;20230;-79
2023/08/21 00:20:23;;;;;;;9.10;5.93;;;;;;;23.76;69.45;96220.97;5014746;28;20187;-78
2023/08/21 00:22:48;;;;;;;6.60;6.00;;;;;;;23.73;69.86;96218.75;5011814;28;20249;-78
2023/08/21 00:25:13;;;;;;;7.75;6.18;;;;;;;23.72;69.44;96225.91;5012929;28;20191;-78
2023/08/21 00:27:39;;;;;;;9.07;6.22;;;;;;;23.71;69.53;96212.84;5017401;28;20249;-78
2023/08/21 00:30:04;;;;;;;7.53;5.90;;;;;;;23.68;69.38;96213.28;5012970;28;20252;-78
2023/08/21 00:32:30;;;;;;;7.78;6.13;;;;;;;23.63;69.81;96205.97;5022157;28;20183;-79
2023/08/21 00:34:55;;;;;;;7.50;6.07;;;;;;;23.65;69.69;96205.75;5014444;28;20191;-78
2023/08/21 00:37:20;;;;;;;8.57;6.35;;;;;;;23.62;69.63;96209.66;5016437;28;20215;-78
2023/08/21 00:39:46;;;;;;;6.70;6.10;;;;;;;23.56;69.77;96204.34;5035846;28;20603;-79
2023/08/21 00:42:11;;;;;;;8.02;6.18;;;;;;;23.56;69.82;96202.50;5022240;28;20582;-78
2023/08/21 00:44:36;;;;;;;6.47;5.88;;;;;;;23.56;69.89;96199.03;5031074;28;20578;-78
2023/08/21 00:47:02;;;;;;;6.65;6.05;;;;;;;23.49;69.52;96192.97;5038523;28;20225;-79
2023/08/21 00:49:29;;;;;;;6.47;5.85;;;;;;;23.51;69.86;96206.84;5025925;28;20197;-78
2023/08/21 00:51:54;;;;;;;6.47;5.80;;;;;;;23.48;69.99;96201.94;5030095;28;20262;-79
2023/08/21 00:54:19;;;;;;;6.70;6.05;;;;;;;23.43;70.34;96198.09;5014864;28;20289;-80
2023/08/21 00:56:45;;;;;;;7.07;6.20;;;;;;;23.40;70.30;96200.34;5032874;28;20189;-80
2023/08/21 00:59:10;;;;;;;8.27;6.45;;;;;;;23.37;70.10;96198.94;5036107;28;20193;-80
2023/08/21 01:01:36;;;;;;;8.10;6.10;;;;;;;23.38;70.50;96200.56;5038883;28;20198;-79
2023/08/21 01:04:02;;;;;;;8.02;5.78;;;;;;;23.36;70.56;96194.66;5034738;28;20652;-80
2023/08/21 01:06:28;;;;;;;8.15;6.72;;;;;;;23.32;70.36;96198.78;5022307;28;20186;-79
2023/08/21 01:09:00;;;;;;;6.50;5.85;;;;;;;23.30;70.64;96195.50;5024959;28;20570;-80
2023/08/21 01:11:37;;;;;;;7.13;6.10;;;;;;;23.30;70.94;96194.69;5027828;28;20183;-79
2023/08/21 01:14:28;;;;;;;6.18;5.68;;;;;;;23.26;70.84;96193.50;5032338;28;20186;-79
2023/08/21 01:16:59;;;;;;;7.13;6.32;;;;;;;23.21;71.19;96194.13;5032928;28;20211;-79
2023/08/21 01:19:30;;;;;;;7.90;6.38;;;;;;;23.22;71.54;96193.09;5036328;28;20584;-79
2023/08/21 01:21:55;;;;;;;9.27;6.63;;;;;;;23.20;70.96;96189.03;5037968;28;20221;-80
2023/08/21 01:24:20;;;;;;;6.28;5.68;;;;;;;23.22;71.05;96197.56;5035802;28;20191;-79
2023/08/21 01:26:46;;;;;;;7.47;5.85;;;;;;;23.14;70.98;96198.63;5015458;28;20595;-79
2023/08/21 01:29:11;;;;;;;6.72;6.05;;;;;;;23.13;71.25;96194.34;5012558;28;20190;-79
2023/08/21 01:31:38;;;;;;;8.88;6.18;;;;;;;23.12;71.24;96196.19;5017988;28;20205;-79
2023/08/21 01:34:06;;;;;;;7.30;6.60;;;;;;;23.09;71.56;96198.47;5017655;28;20197;-80
2023/08/21 01:36:31;;;;;;;9.45;6.70;;;;;;;23.10;71.42;96200.09;5020797;28;20187;-79
2023/08/21 01:38:57;;;;;;;7.47;6.40;;;;;;;23.06;71.60;96198.91;5018983;28;20211;-79
2023/08/21 01:41:24;;;;;;;7.63;5.85;;;;;;;23.06;71.42;96196.25;5017236;28;20198;-80
2023/08/21 01:43:49;;;;;;;6.72;5.80;;;;;;;23.05;71.49;96192.75;5022129;28;20185;-79
2023/08/21 01:46:14;;;;;;;7.10;6.40;;;;;;;22.99;71.63;96192.81;5024694;28;20214;-80
2023/08/21 01:48:40;;;;;;;8.70;6.45;;;;;;;23.00;71.58;96184.63;5023558;28;20282;-79
2023/08/21 01:51:05;;;;;;;7.00;6.20;;;;;;;22.91;72.11;96201.78;5026393;28;20183;-79
2023/08/21 01:53:30;;;;;;;7.25;6.57;;;;;;;22.89;72.57;96193.25;5027937;28;20189;-79
2023/08/21 01:55:55;;;;;;;6.70;5.95;;;;;;;22.91;72.51;96193.03;5031946;28;20215;-79
2023/08/21 01:58:21;;;;;;;6.80;6.10;;;;;;;22.87;72.88;96195.25;5033674;28;20218;-78
2023/08/21 02:00:47;;;;;;;6.90;5.85;;;;;;;22.83;72.59;96197.50;5029140;28;20679;-78
2023/08/21 02:03:12;;;;;;;7.75;6.35;;;;;;;22.79;72.50;96193.66;5017903;28;20218;-78
2023/08/21 02:05:41;;;;;;;7.10;6.35;;;;;;;22.86;72.47;96191.81;5020079;28;20195;-78
2023/08/21 02:08:10;;;;;;;6.85;5.97;;;;;;;22.83;72.76;96191.38;5015382;28;20210;-78
2023/08/21 02:10:35;;;;;;;9.25;6.65;;;;;;;22.84;72.64;96195.66;5022634;28;20273;-78
2023/08/21 02:13:01;;;;;;;7.13;6.43;;;;;;;22.83;72.67;96200.16;5019241;28;20175;-78
2023/08/21 02:15:26;;;;;;;6.93;6.03;;;;;;;22.84;72.84;96198.31;5016818;28;20215;-78
2023/08/21 02:17:51;;;;;;;9.63;6.07;;;;;;;22.85;72.84;96192.03;5013910;28;20707;-78
2023/08/21 02:20:16;;;;;;;8.27;6.18;;;;;;;22.83;72.78;96194.03;5014623;28;20184;-78
2023/08/21 02:22:42;;;;;;;7.25;6.45;;;;;;;22.81;72.90;96193.44;5015992;28;20205;-78
2023/08/21 02:25:07;;;;;;;7.10;6.45;;;;;;;22.82;72.71;96195.06;5019417;28;20190;-78
2023/08/21 02:27:33;;;;;;;7.07;5.90;;;;;;;22.78;73.00;96197.28;5021661;28;20351;-78
2023/08/21 02:29:58;;;;;;;9.75;6.28;;;;;;;22.75;73.22;96187.13;5024542;28;20206;-78
2023/08/21 02:32:23;;;;;;;9.02;6.15;;;;;;;22.75;73.42;96197.72;5019126;28;20201;-79
2023/08/21 02:34:49;;;;;;;6.93;6.20;;;;;;;22.72;73.62;96192.84;5000392;28;20273;-78
2023/08/21 02:37:14;;;;;;;8.35;6.72;;;;;;;22.69;73.59;96197.72;5011708;28;20301;-79
2023/08/21 02:39:39;;;;;;;7.00;6.28;;;;;;;22.64;74.19;96198.38;5020880;28;20269;-78
2023/08/21 02:42:05;;;;;;;8.15;6.47;;;;;;;22.61;74.16;96193.47;5028464;28;20301;-79
2023/08/21 02:44:30;;;;;;;10.00;6.35;;;;;;;22.53;75.23;96193.72;5043418;28;20185;-78
2023/08/21 02:46:55;;;;;;;8.00;6.57;;;;;;;22.52;75.07;96198.16;5014172;28;20183;-79
2023/08/21 02:49:21;;;;;;;7.90;6.50;;;;;;;22.46;75.97;96195.56;5022704;28;20191;-78
2023/08/21 02:51:46;;;;;;;7.75;6.63;;;;;;;22.45;75.94;96199.22;5019750;28;20183;-79
2023/08/21 02:54:11;;;;;;;6.50;5.90;;;;;;;22.46;75.46;96203.50;5016540;28;20187;-79
2023/08/21 02:56:37;;;;;;;6.95;6.20;;;;;;;22.45;75.60;96191.28;5013840;28;20183;-79
2023/08/21 02:59:02;;;;;;;7.32;6.32;;;;;;;22.40;75.95;96196.38;5014866;28;20282;-78
2023/08/21 03:01:27;;;;;;;7.25;6.47;;;;;;;22.39;76.15;96192.91;5018588;28;20284;-79
2023/08/21 03:03:53;;;;;;;7.85;6.70;;;;;;;22.40;75.71;96191.06;5019709;28;20265;-79
2023/08/21 03:06:18;;;;;;;8.55;6.30;;;;;;;22.39;75.81;96192.09;5020500;28;20718;-78
2023/08/21 03:08:43;;;;;;;7.18;6.18;;;;;;;22.36;75.62;96184.56;5013390;28;20206;-78
2023/08/21 03:11:09;;;;;;;7.13;6.47;;;;;;;22.36;75.75;96197.81;5027455;28;20189;-79
2023/08/21 03:13:35;;;;;;;7.07;6.20;;;;;;;22.36;75.56;96192.50;5030910;28;20265;-79
2023/08/21 03:16:00;;;;;;;9.77;6.80;;;;;;;22.37;75.66;96197.59;5014707;28;20681;-78
2023/08/21 03:18:30;;;;;;;7.53;6.75;;;;;;;22.38;75.95;96195.75;5014517;28;20206;-78
2023/08/21 03:20:56;;;;;;;8.38;6.40;;;;;;;22.36;76.12;96195.97;5026979;28;20174;-78
2023/08/21 03:23:21;;;;;;;7.45;6.18;;;;;;;22.33;76.44;96196.38;5030575;28;20261;-79
2023/08/21 03:25:46;;;;;;;7.53;6.82;;;;;;;22.33;76.10;96199.00;5024059;28;20278;-78
2023/08/21 03:28:12;;;;;;;6.95;6.03;;;;;;;22.29;75.96;96198.63;5019894;28;20237;-78
2023/08/21 03:30:39;;;;;;;6.78;5.88;;;;;;;22.28;76.21;96191.69;5034399;28;20206;-78
2023/08/21 03:33:05;;;;;;;8.13;7.07;;;;;;;22.26;76.47;96195.56;5014966;28;20179;-79
2023/08/21 03:35:30;;;;;;;7.57;6.40;;;;;;;22.24;76.65;96195.75;4996398;28;20703;-78
2023/08/21 03:37:56;;;;;;;7.50;6.70;;;;;;;22.21;76.60;96195.38;5011339;28;20234;-79
2023/08/21 03:40:21;;;;;;;6.63;6.03;;;;;;;22.18;76.81;96193.94;5016996;28;20179;-78
2023/08/21 03:42:47;;;;;;;7.47;6.75;;;;;;;22.17;77.15;96197.59;5035455;28;20206;-79
2023/08/21 03:45:12;;;;;;;7.32;6.53;;;;;;;22.18;77.37;96190.50;5021745;28;20277;-79
2023/08/21 03:47:37;;;;;;;10.63;7.03;;;;;;;22.19;77.13;96192.13;5030252;28;20218;-79
2023/08/21 03:50:03;;;;;;;6.70;6.10;;;;;;;22.18;77.38;96195.78;5027004;28;20682;-79
2023/08/21 03:52:28;;;;;;;9.63;6.40;;;;;;;22.20;77.05;96193.75;5030430;28;20174;-79
2023/08/21 03:54:53;;;;;;;7.63;6.68;;;;;;;22.18;77.37;96203.72;5047343;28;20190;-78
2023/08/21 03:57:19;;;;;;;7.32;6.07;;;;;;;22.16;77.51;96209.19;5012741;28;20214;-79
2023/08/21 03:59:44;;;;;;;7.68;6.90;;;;;;;22.17;77.04;96208.16;5027138;28;20297;-78
2023/08/21 04:02:09;;;;;;;8.52;7.47;;;;;;;22.17;77.36;96216.09;5025320;28;20234;-78
2023/08/21 04:04:35;;;;;;;7.60;6.85;;;;;;;22.15;77.15;96210.22;5022165;28;20194;-78
2023/08/21 04:07:00;;;;;;;9.13;7.55;;;;;;;22.17;77.28;96220.59;5019429;28;20241;-78
2023/08/21 04:09:25;;;;;;;8.07;7.40;;;;;;;22.12;77.20;96220.41;5011771;28;20273;-78
2023/08/21 04:11:51;;;;;;;9.23;7.25;;;;;;;22.07;77.51;96221.00;5014074;28;20270;-78
2023/08/21 04:14:16;;;;;;;8.57;7.03;;;;;;;22.08;77.69;96221.81;5013397;28;20190;-78
2023/08/21 04:16:41;;;;;;;9.60;7.15;;;;;;;22.08;78.17;96222.63;5010378;28;20197;-78
2023/08/21 04:19:07;;;;;;;9.38;7.70;;;;;;;22.07;78.06;96221.00;5015894;28;20183;-78
2023/08/21 04:21:32;;;;;;;11.05;7.07;;;;;;;22.08;77.78;96222.63;5019314;28;20252;-78
2023/08/21 04:23:57;;;;;;;6.82;6.18;;;;;;;22.08;77.57;96213.88;5012564;28;20591;-78
2023/08/21 04:26:23;;;;;;;7.57;6.88;;;;;;;22.08;77.66;96227.09;5023311;28;20187;-78
2023/08/21 04:28:48;;;;;;;10.50;7.28;;;;;;;22.10;78.06;96225.91;5026520;28;20715;-78
2023/08/21 04:31:13;;;;;;;9.25;7.53;;;;;;;22.11;77.80;96229.34;5028066;28;20191;-79
2023/08/21 04:33:39;;;;;;;8.48;7.68;;;;;;;22.15;77.55;96223.44;5014695;28;20198;-78
2023/08/21 04:36:04;;;;;;;11.07;7.43;;;;;;;22.17;77.47;96226.69;5010270;28;20198;-78
2023/08/21 04:38:30;;;;;;;8.35;7.47;;;;;;;22.23;77.43;96225.88;5028020;28;20222;-79
2023/08/21 04:40:55;;;;;;;12.77;7.72;;;;;;;22.25;77.56;96223.84;5024817;28;20237;-78
2023/08/21 04:43:20;;;;;;;7.65;6.85;;;;;;;22.30;77.25;96226.69;5021412;28;20238;-78
2023/08/21 04:45:58;;;;;;;8.75;6.85;;;;;;;22.34;76.90;96229.75;5030825;28;20220;-77
2023/08/21 04:48:23;;;;;;;8.88;7.90;;;;;;;22.39;76.56;96223.84;5032395;28;20205;-77
2023/08/21 04:50:48;;;;;;;8.35;7.53;;;;;;;22.37;76.33;96221.41;5024407;28;20233;-79
2023/08/21 04:53:14;;;;;;;7.95;7.07;;;;;;;22.46;76.44;96216.72;5032898;28;20205;-79
2023/08/21 04:55:40;;;;;;;8.75;7.85;;;;;;;22.54;76.64;96221.81;5026676;28;20202;-81
2023/08/21 04:58:06;;;;;;;10.52;7.75;;;;;;;22.64;76.38;96227.47;5023836;28;20215;-80
2023/08/21 05:00:31;;;;;;;8.95;8.05;;;;;;;22.69;75.73;96210.97;5022628;28;20194;-81
2023/08/21 05:02:57;;;;;;;7.88;7.10;;;;;;;22.81;74.47;96228.66;5005799;28;20590;-80
2023/08/21 05:05:22;;;;;;;8.65;7.40;;;;;;;23.40;72.66;96225.00;5023534;28;20189;-79
2023/08/21 05:07:47;;;;;;;7.60;6.90;;;;;;;24.31;69.56;96226.50;5016452;28;20294;-81
2023/08/21 05:10:13;;;;;;;7.47;6.70;;;;;;;24.73;66.25;96222.25;5015385;28;20203;-80
2023/08/21 05:12:38;;;;;;;7.93;7.15;;;;;;;25.07;64.51;96233.38;5012144;28;20215;-84
2023/08/21 05:15:04;;;;;;;7.75;6.15;;;;;;;25.13;63.73;96233.28;5015398;28;20640;-80
2023/08/21 05:17:30;;;;;;;7.30;6.53;;;;;;;25.11;63.98;96232.72;5026806;28;20417;-80
2023/08/21 05:19:56;;;;;;;7.53;6.65;;;;;;;24.98;64.73;96230.16;5006539;28;20730;-79
2023/08/21 05:22:21;;;;;;;10.27;6.63;;;;;;;24.85;64.86;96231.13;5022266;28;20223;-80
2023/08/21 05:24:46;;;;;;;7.32;6.50;;;;;;;24.71;65.87;96236.78;5030142;28;20695;-80
2023/08/21 05:27:11;;;;;;;7.32;6.63;;;;;;;24.60;66.79;96234.84;5016342;28;20581;-80
2023/08/21 05:29:37;;;;;;;7.47;6.78;;;;;;;24.51;67.62;96231.66;5036201;28;20264;-80
2023/08/21 05:32:02;;;;;;;9.52;7.25;;;;;;;24.49;67.76;96242.50;5031267;28;20186;-80
2023/08/21 05:34:29;;;;;;;6.82;6.07;;;;;;;24.51;68.11;96236.97;5030012;28;20229;-80
2023/08/21 05:36:54;;;;;;;6.82;6.22;;;;;;;24.62;67.48;96238.09;5023608;28;20564;-80
2023/08/21 05:39:20;;;;;;;7.53;6.72;;;;;;;24.69;67.54;96239.66;5024606;28;20179;-79
2023/08/21 05:41:45;;;;;;;6.75;6.15;;;;;;;24.62;67.86;96244.22;5026191;28;20210;-80
2023/08/21 05:44:10;;;;;;;7.63;6.68;;;;;;;24.81;67.36;96240.53;5023989;28;20218;-80
2023/08/21 05:46:36;;;;;;;7.13;6.45;;;;;;;24.98;66.50;96240.78;5019950;28;20183;-81
2023/08/21 05:49:01;;;;;;;7.07;6.40;;;;;;;25.02;66.24;96252.66;5032725;28;20207;-81
2023/08/21 05:51:26;;;;;;;8.30;6.22;;;;;;;25.02;66.41;96247.31;5032823;28;20604;-81
2023/08/21 05:53:52;;;;;;;7.53;6.85;;;;;;;25.12;66.07;96244.97;5032423;28;20185;-80
2023/08/21 05:56:17;;;;;;;8.10;6.97;;;;;;;25.29;65.82;96247.84;5024866;28;20193;-84
2023/08/21 05:58:42;;;;;;;9.65;6.90;;;;;;;25.28;65.90;96245.41;5025975;28;20203;-81
2023/08/21 06:01:08;;;;;;;8.55;7.70;;;;;;;25.32;66.01;96247.38;5023375;28;20190;-81
2023/08/21 06:03:33;;;;;;;7.57;6.88;;;;;;;25.52;64.98;96246.31;5022185;28;20264;-81
2023/08/21 06:05:58;;;;;;;7.63;6.82;;;;;;;25.55;64.79;96257.34;5028262;28;20186;-81
2023/08/21 06:08:23;;;;;;;8.65;7.75;;;;;;;25.66;65.00;96256.56;5024109;28;20219;-81
2023/08/21 06:10:52;;;;;;;7.85;6.65;;;;;;;25.75;64.72;96251.78;5018956;28;20198;-81
2023/08/21 06:13:18;;;;;;;7.95;7.15;;;;;;;25.96;64.15;96259.25;5013943;28;20182;-81
2023/08/21 06:15:44;;;;;;;11.13;7.07;;;;;;;26.02;64.67;96257.53;5009946;28;20187;-82
2023/08/21 06:18:10;;;;;;;8.00;7.18;;;;;;;26.10;64.43;96264.38;5030895;28;20792;-82
2023/08/21 06:20:35;;;;;;;7.10;6.40;;;;;;;26.17;64.32;96259.78;5026740;28;20364;-82
2023/08/21 06:23:01;;;;;;;7.60;6.82;;;;;;;26.25;64.70;96267.44;5013970;28;20202;-82
2023/08/21 06:25:26;;;;;;;6.97;6.28;;;;;;;26.36;64.04;96265.81;5031439;28;20195;-84
2023/08/21 06:27:54;;;;;;;7.65;6.85;;;;;;;26.44;63.29;96268.19;5029995;28;20229;-86
2023/08/21 06:30:20;;;;;;;7.60;6.65;;;;;;;26.52;62.85;96267.84;5032416;28;20739;-82
2023/08/21 06:32:45;;;;;;;9.40;6.80;;;;;;;26.51;63.01;96274.22;4998810;28;20376;-82
2023/08/21 06:35:10;;;;;;;10.80;6.88;;;;;;;26.65;63.60;96266.81;5022080;28;20210;-81
2023/08/21 06:37:36;;;;;;;9.40;6.90;;;;;;;26.67;63.96;96270.84;5029075;28;20374;-82
2023/08/21 06:40:01;;;;;;;9.43;6.45;;;;;;;26.69;64.13;96274.13;5029774;28;20186;-82
2023/08/21 06:42:27;;;;;;;8.43;6.43;;;;;;;26.79;62.67;96273.53;5013464;28;20211;-82
2023/08/21 06:44:52;;;;;;;7.60;6.82;;;;;;;26.73;62.47;96275.25;5018559;28;20190;-82
2023/08/21 06:47:17;;;;;;;7.10;6.30;;;;;;;27.13;61.87;96271.13;5017384;28;20202;-82
2023/08/21 06:49:42;;;;;;;6.75;6.15;;;;;;;27.81;59.22;96273.84;4997905;28;20669;-81
2023/08/21 06:52:08;;;;;;;6.57;5.88;;;;;;;29.33;55.07;96272.00;5018912;28;20761;-82
2023/08/21 06:54:33;;;;;;;7.25;6.10;;;;;;;29.85;50.73;96280.41;5024547;28;20603;-82
2023/08/21 06:56:58;;;;;;;8.10;6.22;;;;;;;30.11;49.79;96283.38;5023886;28;20268;-83
2023/08/21 06:59:24;;;;;;;57.55;14.20;;;;;;;30.32;49.52;96287.06;5012509;28;20278;-86
2023/08/21 07:01:51;;;;;;;15.80;8.10;;;;;;;30.45;49.23;96291.97;5015828;28;20202;-83
2023/08/21 07:04:16;;;;;;;8.57;5.65;;;;;;;30.48;48.24;96291.50;5010624;28;20372;-82
2023/08/21 07:06:41;;;;;;;6.72;6.10;;;;;;;30.29;48.81;96291.03;5013638;28;20731;-82
2023/08/21 07:09:07;;;;;;;6.95;6.25;;;;;;;29.71;50.89;96283.72;4992940;28;20201;-82
2023/08/21 07:11:32;;;;;;;7.30;6.13;;;;;;;29.38;51.52;96280.09;5009011;28;20183;-82
2023/08/21 07:13:57;;;;;;;7.20;6.53;;;;;;;29.39;50.36;96291.59;5010051;28;20605;-81
2023/08/21 07:16:23;;;;;;;7.40;6.25;;;;;;;28.83;51.33;96288.94;5014937;28;20189;-82
2023/08/21 07:18:48;;;;;;;7.03;6.10;;;;;;;28.78;52.24;96288.84;5012761;28;20219;-82
2023/08/21 07:21:13;;;;;;;7.07;6.30;;;;;;;28.84;52.74;96287.88;5014466;28;20193;-81
2023/08/21 07:23:38;;;;;;;7.15;6.20;;;;;;;28.78;55.05;96296.88;5004876;28;20990;-81
2023/08/21 07:26:06;;;;;;;7.30;6.60;;;;;;;28.68;55.38;96286.03;5009073;28;20476;-82
2023/08/21 07:28:32;;;;;;;7.05;6.25;;;;;;;28.71;54.88;96291.72;5019583;28;20863;-82
2023/08/21 07:30:58;;;;;;;8.30;6.50;;;;;;;28.47;56.40;96301.75;5011150;28;20195;-82
2023/08/21 07:33:24;;;;;;;7.20;6.47;;;;;;;28.67;55.82;96295.09;5013142;28;20193;-82
2023/08/21 07:36:14;;;;;;;6.55;5.97;;;;;;;28.38;55.55;96297.84;5019649;28;20725;-82
2023/08/21 07:38:40;;;;;;;7.00;6.30;;;;;;;28.11;56.96;96302.16;5018047;28;20202;-82
2023/08/21 07:41:10;;;;;;;7.28;6.63;;;;;;;27.73;57.55;96295.56;5022109;28;20178;-80
2023/08/21 07:43:36;;;;;;;6.75;6.15;;;;;;;27.83;57.55;96306.44;5029173;28;20577;-82
2023/08/21 07:46:05;;;;;;;6.68;6.00;;;;;;;28.04;57.34;96301.50;5005435;28;20556;-82
2023/08/21 07:48:31;;;;;;;8.55;5.93;;;;;;;28.08;57.62;96303.41;5006490;28;20508;-82
2023/08/21 07:50:56;;;;;;;11.25;6.82;;;;;;;27.98;57.35;96305.09;5005295;28;20217;-84
2023/08/21 07:53:23;;;;;;;8.88;6.43;;;;;;;27.49;59.77;96307.34;5015763;28;20240;-83
2023/08/21 07:55:48;;;;;;;7.85;7.05;;;;;;;27.96;58.63;96307.22;4997843;28;20179;-84
2023/08/21 07:58:13;;;;;;;7.35;6.72;;;;;;;27.86;59.28;96313.97;5022992;28;20210;-84
2023/08/21 08:00:39;;;;;;;7.13;6.18;;;;;;;28.16;58.71;96299.56;5021395;28;20206;-84
2023/08/21 08:03:11;;;;;;;7.60;6.88;;;;;;;28.00;58.22;96306.47;5008030;28;20256;-83
2023/08/21 08:05:37;;;;;;;8.65;6.05;;;;;;;28.02;58.05;96303.59;5023142;28;20190;-83
2023/08/21 08:08:02;;;;;;;6.68;6.15;;;;;;;27.92;57.41;96315.69;5030019;28;20281;-83
2023/08/21 08:10:28;;;;;;;9.10;6.35;;;;;;;27.71;57.75;96307.53;5020670;28;20183;-83
2023/08/21 08:12:54;;;;;;;10.15;7.00;;;;;;;27.75;57.90;96309.50;5023160;28;20211;-82
2023/08/21 08:15:19;;;;;;;7.50;6.80;;;;;;;27.85;57.98;96311.56;5022743;28;20218;-83
2023/08/21 08:17:45;;;;;;;7.47;6.47;;;;;;;27.68;58.31;96306.16;5021025;28;20219;-83
2023/08/21 08:20:11;;;;;;;8.80;6.43;;;;;;;27.54;58.08;96305.56;5016337;28;20194;-83
2023/08/21 08:22:37;;;;;;;8.73;6.80;;;;;;;27.97;56.98;96306.16;5023632;28;20268;-82
2023/08/21 08:25:02;;;;;;;8.45;6.70;;;;;;;27.91;56.26;96311.38;5014260;28;20206;-82
2023/08/21 08:27:27;;;;;;;6.82;6.22;;;;;;;27.84;56.73;96305.41;5012022;28;20214;-83
2023/08/21 08:29:53;;;;;;;7.18;6.47;;;;;;;28.22;55.38;96310.09;5021220;28;20194;-81
2023/08/21 08:32:18;;;;;;;7.50;6.80;;;;;;;28.48;54.12;96311.38;5022336;28;20194;-83
2023/08/21 08:34:46;;;;;;;7.95;6.25;;;;;;;28.28;54.42;96307.53;5002114;28;20194;-81
2023/08/21 08:37:11;;;;;;;10.10;6.85;;;;;;;28.04;55.55;96296.16;5020019;28;20263;-82
2023/08/21 08:39:37;;;;;;;8.32;6.32;;;;;;;28.23;53.22;96306.38;5026376;28;20655;-81
2023/08/21 08:42:06;;;;;;;10.15;5.95;;;;;;;28.28;53.48;96303.00;5021388;28;20269;-84
2023/08/21 08:44:35;;;;;;;8.02;6.50;;;;;;;28.43;53.03;96302.44;5012388;28;20178;-83
2023/08/21 08:47:00;;;;;;;9.65;6.53;;;;;;;28.31;53.37;96310.53;5015680;28;20210;-83
2023/08/21 08:49:26;;;;;;;8.05;5.85;;;;;;;28.68;50.93;96310.06;5017807;28;20187;-83
2023/08/21 08:51:53;;;;;;;6.10;5.50;;;;;;;28.66;51.10;96306.84;5004777;28;20561;-83
2023/08/21 08:54:19;;;;;;;8.90;5.63;;;;;;;28.45;49.80;96314.53;5017692;28;20682;-83
2023/08/21 08:56:45;;;;;;;6.03;5.43;;;;;;;28.66;48.32;96309.53;5000475;28;20245;-83
2023/08/21 08:59:10;;;;;;;9.50;5.38;;;;;;;28.95;47.18;96313.72;5011423;28;20183;-83
2023/08/21 09:01:35;;;;;;;9.80;5.80;;;;;;;28.87;46.13;96314.13;5026793;28;20241;-83
2023/08/21 09:04:03;;;;;;;7.88;5.90;;;;;;;28.83;48.14;96321.00;5025497;28;21703;-83
2023/08/21 09:06:28;;;;;;;10.55;5.97;;;;;;;28.90;49.03;96315.53;5020221;28;20225;-82
2023/08/21 09:08:57;;;;;;;6.57;5.97;;;;;;;29.03;48.39;96320.53;5022730;28;20230;-82
2023/08/21 09:11:23;;;;;;;6.93;5.72;;;;;;;29.22;48.41;96321.06;5030765;28;20183;-82
2023/08/21 09:13:53;;;;;;;10.00;6.28;;;;;;;28.92;50.05;96322.25;5023428;28;20775;-81
2023/08/21 09:16:19;;;;;;;7.78;6.20;;;;;;;29.06;49.71;96320.84;5029133;28;20191;-82
2023/08/21 09:18:56;;;;;;;9.05;6.03;;;;;;;28.69;50.32;96325.06;5020152;28;20711;-78
2023/08/21 09:21:23;;;;;;;7.43;5.45;;;;;;;29.35;48.71;96323.41;5030073;28;20187;-78
2023/08/21 09:23:55;;;;;;;7.20;6.50;;;;;;;29.40;49.01;96320.78;4999351;28;20179;-79
2023/08/21 09:26:22;;;;;;;9.48;5.97;;;;;;;29.48;48.54;96324.91;5018810;28;20184;-79
2023/08/21 09:28:48;;;;;;;8.57;5.95;;;;;;;29.72;48.75;96320.16;5004041;28;20211;-78
2023/08/21 09:31:14;;;;;;;6.85;6.20;;;;;;;29.93;49.00;96321.19;5022808;28;20213;-79
2023/08/21 09:33:40;;;;;;;6.72;5.93;;;;;;;29.71;48.41;96319.34;5009760;28;20187;-78
2023/08/21 09:36:05;;;;;;;8.45;5.68;;;;;;;29.77;47.88;96318.34;5021788;28;20187;-79
2023/08/21 09:38:30;;;;;;;8.35;5.97;;;;;;;30.12;46.85;96323.28;5019597;28;20210;-79
2023/08/21 09:40:56;;;;;;;8.55;7.10;;;;;;;29.60;49.44;96320.28;5016974;28;20680;-79
2023/08/21 09:43:22;;;;;;;7.65;5.53;;;;;;;29.82;47.55;96317.59;5000460;28;20214;-79
2023/08/21 09:45:52;;;;;;;10.85;6.45;;;;;;;29.55;47.96;96318.34;5017053;28;20812;-78
2023/08/21 09:48:17;;;;;;;10.25;6.55;;;;;;;29.67;48.35;96312.03;5026852;28;20232;-79
2023/08/21 09:50:43;;;;;;;6.75;6.05;;;;;;;29.67;48.44;96309.38;5024798;28;20658;-79
2023/08/21 09:53:09;;;;;;;6.85;5.88;;;;;;;29.96;48.16;96312.66;5024314;28;20253;-79
2023/08/21 09:55:35;;;;;;;7.07;6.20;;;;;;;29.63;48.62;96305.59;5020055;28;20226;-78
2023/08/21 09:58:01;;;;;;;7.15;6.10;;;;;;;29.95;47.90;96311.00;5022961;28;20291;-79
2023/08/21 10:00:30;;;;;;;8.00;5.75;;;;;;;30.19;47.37;96301.66;5009561;28;20186;-77
2023/08/21 10:03:01;;;;;;;9.32;6.47;;;;;;;29.98;47.38;96297.94;5031534;28;20206;-78
2023/08/21 10:05:26;;;;;;;7.45;6.47;;;;;;;30.08;47.51;96295.41;5017944;28;20187;-78
2023/08/21 10:07:53;;;;;;;6.80;6.20;;;;;;;29.93;47.84;96287.19;5038700;28;20276;-77
2023/08/21 10:10:18;;;;;;;9.95;6.05;;;;;;;30.00;47.64;96287.78;5023953;28;20194;-77
2023/08/21 10:12:44;;;;;;;10.30;6.57;;;;;;;30.26;47.10;96290.75;5024986;28;20306;-78
2023/08/21 10:15:09;;;;;;;8.85;6.07;;;;;;;29.81;47.72;96290.00;5026737;28;20657;-78
2023/08/21 10:17:36;;;;;;;8.13;5.82;;;;;;;30.15;47.09;96290.66;5015424;28;20238;-77
2023/08/21 10:20:06;;;;;;;6.82;5.80;;;;;;;30.14;46.07;96282.88;4997347;28;20267;-77
2023/08/21 10:22:38;;;;;;;9.82;5.97;;;;;;;30.21;46.18;96280.78;5032944;28;20227;-77
2023/08/21 10:25:15;;;;;;;6.47;5.88;;;;;;;30.36;46.83;96285.47;5017780;28;20187;-77
2023/08/21 10:27:41;;;;;;;9.13;5.97;;;;;;;30.43;46.33;96280.72;5029511;28;20236;-77
2023/08/21 10:30:19;;;;;;;8.43;5.75;;;;;;;29.80;46.79;96279.56;5021768;28;20261;-77
2023/08/21 10:32:46;;;;;;;8.88;6.00;;;;;;;29.70;45.98;96279.44;5022362;28;20186;-77
2023/08/21 10:35:16;;;;;;;7.93;6.55;;;;;;;29.52;46.98;96277.91;5017515;28;20605;-77
2023/08/21 10:38:07;;;;;;;10.43;5.95;;;;;;;29.86;46.91;96281.19;5010420;28;20573;-77
2023/08/21 10:40:33;;;;;;;6.90;5.88;;;;;;;29.49;48.32;96278.38;5015413;28;20187;-77
2023/08/21 10:42:59;;;;;;;7.53;5.93;;;;;;;30.11;48.00;96270.78;5005507;28;20681;-77
2023/08/21 10:45:24;;;;;;;8.25;6.43;;;;;;;30.44;45.61;96277.78;5021351;28;20274;-77
2023/08/21 10:47:50;;;;;;;8.40;6.03;;;;;;;30.44;44.97;96285.81;5023512;28;20624;-77
2023/08/21 10:50:16;;;;;;;9.82;6.35;;;;;;;30.50;45.18;96281.31;5004678;28;20209;-77
2023/08/21 10:52:44;;;;;;;9.13;5.75;;;;;;;30.70;45.98;96284.19;5022322;28;20185;-77
2023/08/21 10:55:11;;;;;;;7.15;5.72;;;;;;;30.73;45.09;96285.53;4999906;28;20294;-78
2023/08/21 10:57:36;;;;;;;8.45;6.53;;;;;;;30.31;45.22;96282.78;5026607;28;20602;-77
2023/08/21 11:00:09;;;;;;;8.68;7.10;;;;;;;30.86;45.37;96279.75;5022443;28;20187;-77
2023/08/21 11:02:36;;;;;;;7.78;5.97;;;;;;;30.66;44.99;96276.94;5029334;28;20210;-77
2023/08/21 11:05:03;;;;;;;11.60;6.55;;;;;;;30.71;44.88;96268.91;5021435;28;20242;-77
2023/08/21 11:07:29;;;;;;;7.85;5.43;;;;;;;30.59;45.63;96271.75;5023078;28;20269;-77
2023/08/21 11:09:54;;;;;;;8.38;5.85;;;;;;;30.62;44.98;96275.78;5005464;28;20195;-77
2023/08/21 11:12:24;;;;;;;6.82;5.78;;;;;;;30.35;45.34;96271.28;5018361;28;20248;-77
2023/08/21 11:14:49;;;;;;;6.63;6.05;;;;;;;30.40;45.38;96268.66;5023861;28;20202;-77
2023/08/21 11:17:15;;;;;;;8.45;6.03;;;;;;;30.49;45.89;96270.88;5015974;28;20455;-77
2023/08/21 11:19:41;;;;;;;7.47;6.47;;;;;;;30.62;45.80;96263.19;5012897;28;20695;-77
2023/08/21 11:22:07;;;;;;;9.30;6.57;;;;;;;31.00;44.14;96267.47;5018294;28;20596;-78
2023/08/21 11:24:46;;;;;;;8.00;6.43;;;;;;;31.23;43.80;96270.84;5035857;28;20332;-78
2023/08/21 11:27:14;;;;;;;12.20;6.65;;;;;;;31.59;43.67;96266.44;5019757;28;20210;-77